SUMU/MVD METAR and TAF weather

Enter ICAO airport designator
Station Type Date Time Source
SUMU METAR 2019/12/10 03:00 UTC NOAA

SUMU 100300Z 02012KT CAVOK 24/14 Q1009 NOSIG


Station Type Date Time Source
SUMU Decoded METAR 2019/12/10 03:00 UTC NOAA

Carrasco, Uruguay (SUMU) 34-50S 056-00W 32M
Dec 09, 2019 - 10:00 PM EST / 2019.12.10 0300 UTC
Wind: from the NNE (020 degrees) at 14 MPH (12 KT):0
Visibility: greater than 7 mile(s):0
Temperature: 75 F (24 C)
Dew Point: 57 F (14 C)
Relative Humidity: 53%
Pressure (altimeter): 29.80 in. Hg (1009 hPa)
ob: SUMU 100300Z 02012KT CAVOK 24/14 Q1009 NOSIG
cycle: 3

Station Type Date Time Source
SUMU TAF 2019/12/09 18:30 UTC NOAA

TAF SUMU 091730Z 0918/1018 12010KT 9999 FEW033 TX35/1018Z TN19/1009Z
BECMG 0922/1000 04010G20KT CAVOK

Example: see airport list